createdAt,value
2023-01-11T05:09:26.349Z,8.60
2023-01-11T05:11:54.869Z,8.60
2023-01-11T05:14:23.655Z,8.70
2023-01-11T05:16:52.081Z,8.70
2023-01-11T05:19:20.582Z,8.70
2023-01-11T05:21:49.226Z,8.70
2023-01-11T05:24:18.146Z,8.70
2023-01-11T05:26:50.285Z,8.70
2023-01-11T05:29:20.594Z,8.70
2023-01-11T05:31:49.456Z,8.80
2023-01-11T05:34:18.612Z,8.80
2023-01-11T05:36:47.430Z,8.80
2023-01-11T05:39:16.340Z,8.90
2023-01-11T05:41:44.897Z,8.90
2023-01-11T05:44:32.505Z,8.80
2023-01-11T05:47:01.145Z,8.80
2023-01-11T05:49:31.206Z,8.90
2023-01-11T05:51:59.498Z,8.90
2023-01-11T05:54:27.854Z,8.90
2023-01-11T05:56:57.985Z,9.00
2023-01-11T05:59:32.765Z,9.00
2023-01-11T06:02:01.271Z,8.90
2023-01-11T06:04:29.725Z,9.00
2023-01-11T06:06:58.367Z,9.00
2023-01-11T06:09:26.742Z,9.20
2023-01-11T06:11:55.155Z,9.20
2023-01-11T06:14:24.988Z,9.20
2023-01-11T06:16:54.848Z,9.30
2023-01-11T06:19:23.138Z,9.30
2023-01-11T06:21:51.835Z,9.10
2023-01-11T06:24:20.409Z,9.20
2023-01-11T06:26:48.864Z,9.30
2023-01-11T06:29:19.196Z,9.30
2023-01-11T06:31:47.843Z,9.30
2023-01-11T06:34:17.580Z,9.30
2023-01-11T06:36:45.929Z,9.40
2023-01-11T06:39:14.148Z,9.40
2023-01-11T06:41:42.291Z,9.40
2023-01-11T06:44:10.505Z,9.40
2023-01-11T06:46:39.135Z,9.40
2023-01-11T06:49:07.260Z,9.50
2023-01-11T06:51:38.648Z,9.50
2023-01-11T06:54:07.281Z,9.50
2023-01-11T06:56:35.970Z,9.50
2023-01-11T06:59:04.194Z,9.50
2023-01-11T07:01:32.568Z,9.50
2023-01-11T07:04:01.643Z,9.60
2023-01-11T07:06:32.184Z,9.50
2023-01-11T07:09:01.739Z,9.50
2023-01-11T07:11:31.801Z,9.60
2023-01-11T07:14:00.305Z,9.50
2023-01-11T07:16:28.521Z,9.50
2023-01-11T07:18:56.981Z,9.80
2023-01-11T07:21:26.810Z,9.80
2023-01-11T07:23:55.480Z,9.60
2023-01-11T07:26:26.620Z,9.60
2023-01-11T07:28:54.960Z,9.60
2023-01-11T07:31:23.422Z,9.60
2023-01-11T07:33:52.215Z,9.70
2023-01-11T07:36:20.442Z,9.70
2023-01-11T07:38:48.947Z,9.60
2023-01-11T07:41:34.938Z,9.70
2023-01-11T07:44:06.015Z,9.60
2023-01-11T07:46:34.420Z,9.70
2023-01-11T07:49:02.814Z,9.60
2023-01-11T07:51:31.163Z,9.80
2023-01-11T07:54:02.445Z,9.90
2023-01-11T07:56:31.270Z,9.80
2023-01-11T07:58:59.735Z,9.90
2023-01-11T08:01:29.408Z,9.80
2023-01-11T08:03:57.445Z,9.70
2023-01-11T08:06:25.925Z,9.70
2023-01-11T08:08:54.185Z,9.80
2023-01-11T08:11:40.059Z,9.70
2023-01-11T08:14:27.059Z,9.70
2023-01-11T08:16:57.033Z,9.70
2023-01-11T08:19:25.513Z,9.80
2023-01-11T08:21:54.223Z,9.80
2023-01-11T08:24:22.864Z,9.80
2023-01-11T08:26:51.175Z,9.80
2023-01-11T08:29:19.605Z,9.90
2023-01-11T08:31:48.871Z,9.80
2023-01-11T08:34:19.264Z,9.80
2023-01-11T08:36:47.747Z,9.80
2023-01-11T08:39:16.249Z,9.80
2023-01-11T08:41:45.362Z,10.00
2023-01-11T08:44:15.058Z,9.90
2023-01-11T08:46:43.583Z,9.90
2023-01-11T08:49:13.038Z,9.90
2023-01-11T08:51:43.661Z,9.90
2023-01-11T08:54:14.218Z,9.90
2023-01-11T08:56:42.776Z,9.90
2023-01-11T08:59:12.910Z,10.00
2023-01-11T09:01:41.566Z,10.00
2023-01-11T09:04:23.762Z,10.00
2023-01-11T09:06:55.446Z,10.00
2023-01-11T09:09:23.844Z,10.10
2023-01-11T09:11:56.765Z,10.20
2023-01-11T09:14:26.642Z,10.20
2023-01-11T09:16:55.670Z,10.20
2023-01-11T09:19:24.357Z,10.20
2023-01-11T09:21:53.407Z,10.10
2023-01-11T09:24:23.590Z,10.10
2023-01-11T09:26:52.087Z,10.00
2023-01-11T09:29:21.129Z,10.10
2023-01-11T09:31:49.771Z,10.10
2023-01-11T09:34:19.676Z,10.10
2023-01-11T09:36:49.129Z,10.10
2023-01-11T09:39:20.506Z,10.00
2023-01-11T09:42:15.372Z,10.00
2023-01-11T09:44:51.126Z,10.00
2023-01-11T09:47:25.648Z,10.00
2023-01-11T09:49:57.380Z,9.90
2023-01-11T09:52:29.315Z,9.90
2023-01-11T09:54:59.187Z,9.90
2023-01-11T09:57:39.178Z,9.80
2023-01-11T10:00:14.595Z,9.90
2023-01-11T10:02:56.991Z,9.80
2023-01-11T10:05:46.539Z,9.90
2023-01-11T10:18:37.853Z,9.80
2023-01-11T10:18:41.379Z,9.80
2023-01-11T10:20:24.970Z,9.70
2023-01-11T10:22:59.322Z,9.70
2023-01-11T10:25:34.560Z,9.70
2023-01-11T10:28:07.132Z,9.70
2023-01-11T10:30:57.681Z,9.70
2023-01-11T10:33:45.573Z,9.70
2023-01-11T10:36:34.794Z,9.60
2023-01-11T10:39:35.958Z,9.60
2023-01-11T10:42:10.685Z,9.60
2023-01-11T10:44:42.371Z,9.60
2023-01-11T10:47:17.798Z,9.60
2023-01-11T10:49:51.961Z,9.60
2023-01-11T10:52:29.715Z,9.60
2023-01-11T10:55:00.829Z,9.60
2023-01-11T10:58:00.144Z,9.60
2023-01-11T11:00:36.230Z,9.60
2023-01-11T11:03:36.224Z,9.60
2023-01-11T11:06:09.851Z,9.60
2023-01-11T11:08:43.560Z,9.60
2023-01-11T11:11:16.000Z,9.60
2023-01-11T11:13:51.004Z,9.70
2023-01-11T11:16:39.825Z,9.70
2023-01-11T11:19:14.016Z,9.70
2023-01-11T11:21:44.307Z,9.70
2023-01-11T11:24:19.526Z,9.80
2023-01-11T11:26:51.200Z,9.80
2023-01-11T11:29:23.195Z,9.80
2023-01-11T11:31:52.477Z,9.70
2023-01-11T11:34:27.614Z,9.70
2023-01-11T11:36:56.235Z,9.60
2023-01-11T11:39:28.614Z,9.60
2023-01-11T11:41:58.419Z,9.60
2023-01-11T11:44:28.851Z,9.60
2023-01-11T11:47:02.058Z,9.60
2023-01-11T11:49:33.101Z,9.60
2023-01-11T11:52:02.607Z,9.60
2023-01-11T11:54:32.765Z,9.70
2023-01-11T11:57:13.212Z,9.80
2023-01-11T11:59:47.384Z,9.80
2023-01-11T12:02:23.934Z,10.00
2023-01-11T12:04:54.940Z,10.00
2023-01-11T12:07:24.846Z,10.00
2023-01-11T12:09:59.152Z,10.00
2023-01-11T12:12:29.522Z,9.90
2023-01-11T12:15:13.759Z,9.90
2023-01-11T12:17:42.544Z,9.80
2023-01-11T12:23:18.277Z,9.80
2023-01-11T12:26:03.677Z,9.70
2023-01-11T12:29:04.378Z,9.70
2023-01-11T12:31:38.653Z,9.70
2023-01-11T12:34:14.850Z,9.80
2023-01-11T12:36:49.907Z,9.80
2023-01-11T12:39:24.580Z,9.80
2023-01-11T12:42:03.850Z,9.80
2023-01-11T12:44:56.281Z,9.90
2023-01-11T12:47:52.567Z,9.90
2023-01-11T12:50:25.064Z,10.00
2023-01-11T12:53:00.930Z,10.00
2023-01-11T12:55:39.500Z,10.10
2023-01-11T12:58:15.131Z,10.10
2023-01-11T13:01:06.045Z,10.00
2023-01-11T13:04:01.240Z,10.00
2023-01-11T13:06:33.962Z,9.90
2023-01-11T13:09:05.457Z,9.80
2023-01-11T13:11:45.986Z,9.80
2023-01-11T13:14:38.454Z,9.80
2023-01-11T13:17:19.145Z,9.70
2023-01-11T13:19:55.352Z,9.70
2023-01-11T13:22:29.905Z,9.70
2023-01-11T13:24:58.660Z,9.70
2023-01-11T13:27:31.872Z,9.70
2023-01-11T13:30:02.428Z,9.80
2023-01-11T13:32:36.475Z,9.80
2023-01-11T13:35:08.022Z,9.80
2023-01-11T13:37:39.378Z,9.80
2023-01-11T13:40:17.460Z,9.90
2023-01-11T13:42:52.513Z,9.90
2023-01-11T13:45:24.155Z,9.90
2023-01-11T13:47:55.632Z,9.90
2023-01-11T13:50:28.610Z,9.90
2023-01-11T13:53:03.665Z,9.90
2023-01-11T13:55:39.394Z,9.90
2023-01-11T13:58:13.735Z,9.90
2023-01-11T14:00:44.727Z,9.90
2023-01-11T14:03:20.265Z,9.90
2023-01-11T14:05:57.180Z,9.80
2023-01-11T14:08:48.826Z,9.80
2023-01-11T14:11:20.926Z,9.80
2023-01-11T14:14:18.213Z,9.80
2023-01-11T14:16:58.588Z,9.70
2023-01-11T14:19:31.748Z,9.70
2023-01-11T14:22:10.424Z,9.70
2023-01-11T14:24:42.750Z,9.70
2023-01-11T14:27:30.030Z,9.60
2023-01-11T14:30:37.681Z,9.60
2023-01-11T14:33:33.029Z,9.70
2023-01-11T14:36:26.178Z,9.70
2023-01-11T14:39:08.352Z,9.70
2023-01-11T14:42:32.081Z,9.60
2023-01-11T14:45:19.681Z,9.60
2023-01-11T14:48:15.266Z,9.60
2023-01-11T14:50:57.252Z,9.60
2023-01-11T14:53:29.729Z,9.60
2023-01-11T14:55:58.137Z,9.50
2023-01-11T14:58:28.092Z,9.50
2023-01-11T15:01:21.851Z,9.50
2023-01-11T15:03:51.383Z,9.50
2023-01-11T15:06:24.761Z,9.50
2023-01-11T15:08:55.605Z,9.50
2023-01-11T15:11:40.885Z,9.50
2023-01-11T15:14:30.337Z,9.50
2023-01-11T15:17:18.768Z,9.40
2023-01-11T15:19:49.278Z,9.40
2023-01-11T15:22:33.156Z,9.40
2023-01-11T15:25:03.509Z,9.30
2023-01-11T15:27:37.255Z,9.30
2023-01-11T15:30:08.266Z,9.30
2023-01-11T15:32:37.457Z,9.20
2023-01-11T15:35:31.928Z,9.20
2023-01-11T15:38:07.060Z,9.20
2023-01-11T15:40:39.457Z,9.20
2023-01-11T15:43:39.805Z,9.10
2023-01-11T15:46:56.169Z,9.00
2023-01-11T15:49:55.955Z,9.10
2023-01-11T15:52:59.646Z,9.30
2023-01-11T15:55:59.074Z,9.30
2023-01-11T15:58:47.020Z,9.50
2023-01-11T16:01:23.425Z,9.60
2023-01-11T16:04:23.168Z,9.60
2023-01-11T16:06:55.603Z,9.70
2023-01-11T16:09:35.670Z,9.60
2023-01-11T16:12:16.826Z,9.60
2023-01-11T16:15:08.729Z,9.60
2023-01-11T16:17:41.493Z,9.60
2023-01-11T16:20:28.020Z,9.70
2023-01-11T16:22:58.415Z,9.50
2023-01-11T16:25:30.265Z,9.60
2023-01-11T16:28:00.833Z,9.70
2023-01-11T16:30:30.006Z,9.60
2023-01-11T16:33:16.580Z,9.60
2023-01-11T16:35:44.881Z,9.50
2023-01-11T16:38:17.708Z,9.50
2023-01-11T16:40:50.465Z,9.50
2023-01-11T16:43:22.666Z,9.40
2023-01-11T16:45:54.992Z,9.50
2023-01-11T16:48:24.276Z,9.50
2023-01-11T16:51:01.634Z,9.30
2023-01-11T16:53:31.585Z,9.40
2023-01-11T16:56:05.561Z,9.30
2023-01-11T16:58:39.239Z,9.30
2023-01-11T17:01:09.694Z,9.40
2023-01-11T17:03:44.000Z,9.40
2023-01-11T17:06:22.108Z,9.40
2023-01-11T17:08:52.608Z,9.40
2023-01-11T17:11:25.401Z,9.30
2023-01-11T17:14:29.629Z,9.20
2023-01-11T17:17:00.863Z,9.20
2023-01-11T17:19:31.028Z,9.20
2023-01-11T17:22:04.779Z,9.30
2023-01-11T17:24:36.613Z,9.30
2023-01-11T17:27:06.675Z,9.20
2023-01-11T17:29:40.701Z,9.20
2023-01-11T17:32:14.179Z,9.20
2023-01-11T17:34:42.932Z,9.30
2023-01-11T17:37:15.598Z,9.20
2023-01-11T17:39:47.731Z,9.20
2023-01-11T17:42:34.775Z,9.20
2023-01-11T17:45:20.793Z,9.30
2023-01-11T17:47:51.518Z,9.20
2023-01-11T17:50:26.895Z,9.20
2023-01-11T17:53:04.330Z,9.20
2023-01-11T17:55:34.674Z,9.20
2023-01-11T17:58:20.140Z,9.10
2023-01-11T18:01:12.980Z,9.10
2023-01-11T18:03:42.917Z,9.00
2023-01-11T18:06:14.393Z,9.00
2023-01-11T18:08:48.330Z,9.00
2023-01-11T18:11:26.730Z,9.10
2023-01-11T18:13:56.356Z,9.10
2023-01-11T18:16:28.565Z,9.10
2023-01-11T18:18:59.716Z,9.00
2023-01-11T18:21:41.541Z,9.10
2023-01-11T18:24:54.007Z,9.00
2023-01-11T18:27:33.076Z,9.10
2023-01-11T18:30:06.279Z,9.00
2023-01-11T18:32:40.583Z,9.00
2023-01-11T18:35:18.414Z,9.00
2023-01-11T18:37:48.679Z,8.90
2023-01-11T18:40:18.320Z,9.00
2023-01-11T18:42:49.083Z,8.90
2023-01-11T18:45:18.215Z,9.00
2023-01-11T18:47:48.232Z,9.00
2023-01-11T18:50:19.443Z,8.90
2023-01-11T18:52:48.228Z,8.90
2023-01-11T18:55:16.845Z,8.90
2023-01-11T18:57:45.173Z,8.90
2023-01-11T19:00:18.787Z,8.80
2023-01-11T19:02:48.974Z,8.80
2023-01-11T19:05:20.272Z,8.80
2023-01-11T19:07:49.012Z,8.80
2023-01-11T19:10:20.258Z,8.80
2023-01-11T19:12:49.051Z,8.80
2023-01-11T19:15:18.318Z,8.80
2023-01-11T19:17:48.417Z,8.70
2023-01-11T19:20:17.128Z,8.80
2023-01-11T19:22:45.682Z,8.80
2023-01-11T19:25:14.318Z,8.70
2023-01-11T19:27:42.702Z,8.70
2023-01-11T19:30:12.276Z,8.70
2023-01-11T19:32:40.687Z,8.70
2023-01-11T19:35:11.836Z,8.70
2023-01-11T19:37:40.339Z,8.70
2023-01-11T19:40:10.770Z,8.70
2023-01-11T19:42:40.263Z,8.70
2023-01-11T19:45:09.612Z,8.70
2023-01-11T19:47:38.113Z,8.70
2023-01-11T19:50:08.381Z,8.70
2023-01-11T19:52:38.467Z,8.70
2023-01-11T19:55:08.020Z,8.60
2023-01-11T19:57:36.517Z,8.60
2023-01-11T20:00:06.429Z,8.60
2023-01-11T20:02:35.073Z,8.60
2023-01-11T20:05:03.538Z,8.60
2023-01-11T20:07:32.072Z,8.60
2023-01-11T20:10:02.216Z,8.60
2023-01-11T20:12:30.710Z,8.70
2023-01-11T20:15:01.343Z,8.60
2023-01-11T20:17:30.276Z,8.60
2023-01-11T20:19:58.667Z,8.60
2023-01-11T20:22:27.002Z,8.60
2023-01-11T20:24:56.332Z,8.60
2023-01-11T20:27:26.600Z,8.50
2023-01-11T20:29:55.176Z,8.50
2023-01-11T20:32:41.117Z,8.50
2023-01-11T20:35:11.147Z,8.50
2023-01-11T20:37:39.738Z,8.50
2023-01-11T20:40:11.862Z,8.60
2023-01-11T20:42:43.453Z,8.60
2023-01-11T20:45:12.973Z,8.60
2023-01-11T20:47:41.467Z,8.60
2023-01-11T20:50:11.131Z,8.60
2023-01-11T20:52:39.745Z,8.60
2023-01-11T20:55:08.919Z,8.60
2023-01-11T20:57:37.199Z,8.70
2023-01-11T21:02:38.132Z,8.70
2023-01-11T21:05:07.423Z,8.70
2023-01-11T21:07:35.813Z,8.80
2023-01-11T21:10:04.431Z,8.80
2023-01-11T21:12:33.066Z,8.80
2023-01-11T21:15:01.544Z,8.80
2023-01-11T21:17:31.547Z,8.80
2023-01-11T21:20:04.140Z,8.80
2023-01-11T21:22:37.281Z,8.90
2023-01-11T21:25:06.390Z,8.80
2023-01-11T21:27:34.722Z,8.90
2023-01-11T21:30:03.280Z,8.80
2023-01-11T21:32:33.149Z,8.80
2023-01-11T21:35:01.854Z,8.90
2023-01-11T21:37:30.752Z,8.80
2023-01-11T21:39:59.428Z,8.80
2023-01-11T21:42:27.903Z,8.70
2023-01-11T21:44:56.477Z,8.70
2023-01-11T21:47:24.837Z,8.70
2023-01-11T21:49:54.950Z,8.60
2023-01-11T21:52:23.871Z,8.60
2023-01-11T21:54:53.948Z,8.60
2023-01-11T21:57:22.459Z,8.50
2023-01-11T21:59:50.810Z,8.50
2023-01-11T22:02:19.329Z,8.50
2023-01-11T22:04:47.805Z,8.50
2023-01-11T22:07:17.524Z,8.50
2023-01-11T22:10:03.458Z,8.40
2023-01-11T22:12:33.924Z,8.40
2023-01-11T22:15:02.520Z,8.40
2023-01-11T22:17:31.207Z,8.30
2023-01-11T22:19:59.782Z,8.30
2023-01-11T22:22:30.076Z,8.30
2023-01-11T22:24:58.598Z,8.30
2023-01-11T22:27:27.162Z,8.20
2023-01-11T22:29:55.705Z,8.20
2023-01-11T22:32:24.152Z,8.20
2023-01-11T22:34:52.837Z,8.20
2023-01-11T22:37:21.227Z,8.20
2023-01-11T22:39:51.032Z,8.20
2023-01-11T22:42:19.628Z,8.20
2023-01-11T22:44:48.210Z,8.20
2023-01-11T22:47:16.630Z,8.20
2023-01-11T22:49:44.603Z,8.20
